LFJRLFRM

Guest
Details From LFJR - Angers Marce
To LFRM - Le Mans Arnage
Flight Number -
Tags Generated
Created
Modified
Stats Distance 31 nm / 58 km
Max Altitude 0 ft / 0 m
Waypoints 2
Social Downloads 2
Likes 0
Share VATSIM

Download

Looking for another format? Having issues loading an existing format? Contact us
Advertisement - Login to hide

Notes

Generated

Route

LFJR LFRM

ID Type Via Altitude Latitude Longitude Leg Dist Tot Dist Heading (true) Name
O LFJR APT - 0 ft / 0 m 47.55972˚ -0.32122˚ - 0 nm - -
O LFRM APT - 0 ft / 0 m 47.94185˚ 0.19799˚ 31 nm 31 nm 42° / 43° -

Altitude Profile

Advertisement - Login to hide

LFJR

Details ICAO LFJR (ANE)
Name Angers Marce
Region France
Timezone Europe/Paris (UTC+1.0)
Stats Elevation 194 ft / 59 m (AMSL)
Location 47.559822° -0.312207°
Runways 3
Magnetic Variation 0.136° W

METAR

LFJR 160930Z AUTO VRB03KT CAVOK 03/02 Q1020 NOSIG

Decode

TAF

Not found

Departure Runways

ID Width Length Bearing (true) Bearing (mag) Surface Threshold Offset Overrun Length
08 135 ft / 41 m 5,405 ft / 1,647 m 80.99° 81.13° Asphalt 120 ft / 37 m 0 ft / 0 m
08L 135 ft / 41 m 2,131 ft / 650 m 81.00° 81.14° Grass 0 ft / 0 m 0 ft / 0 m
08R 300 ft / 91 m 3,303 ft / 1,007 m 81.00° 81.14° Grass 0 ft / 0 m 0 ft / 0 m
26 135 ft / 41 m 5,405 ft / 1,647 m 261.01° 261.15° Asphalt 250 ft / 76 m 0 ft / 0 m
26L 300 ft / 91 m 3,303 ft / 1,007 m 261.00° 261.14° Grass 0 ft / 0 m 0 ft / 0 m
26R 135 ft / 41 m 2,131 ft / 650 m 261.00° 261.14° Grass 0 ft / 0 m 0 ft / 0 m

LFRM

Details ICAO LFRM (LME)
Name Le Mans Arnage
Region France
Timezone Europe/Paris (UTC+1.0)
Stats Elevation 194 ft / 59 m (AMSL)
Location 47.947839° 0.201291°
Runways 1
Magnetic Variation 0.007° W

METAR

LFRM 160930Z AUTO VRB02KT CAVOK 04/02 Q1019 NOSIG

Decode

TAF

Not found

Destination Runways

ID Width Length Bearing (true) Bearing (mag) Surface Threshold Offset Overrun Length
02 98 ft / 30 m 4,657 ft / 1,420 m 20.27° 20.28° Asphalt 0 ft / 0 m 0 ft / 0 m
20 98 ft / 30 m 4,657 ft / 1,420 m 200.28° 200.29° Asphalt 918 ft / 280 m 0 ft / 0 m

Approach Navaids

Runway Type Ident Frequency Range Bearing (true) Bearing (mag) Slope Elevation
02 Localiser LEM 109.75 MHz 18 nm / 33 km 20.27° 20.28° - 194 ft / 59 m (AMSL)
02 DME LEM 109.75 MHz 18 nm / 33 km - - - 180 ft / 55 m (AMSL)

Popular Alternatives